createdAt,value
2022-12-23T00:01:35.558Z,90.91
2022-12-23T00:04:03.848Z,91.45
2022-12-23T00:06:32.065Z,91.75
2022-12-23T00:09:01.092Z,90.80
2022-12-23T00:11:29.998Z,89.50
2022-12-23T00:14:21.121Z,89.80
2022-12-23T00:16:52.088Z,89.27
2022-12-23T00:19:20.341Z,87.60
2022-12-23T00:21:49.028Z,87.99
2022-12-23T00:24:17.124Z,87.81
2022-12-23T00:26:45.343Z,88.32
2022-12-23T00:29:13.422Z,88.13
2022-12-23T00:31:41.591Z,87.24
2022-12-23T00:34:13.118Z,87.43
2022-12-23T00:36:41.492Z,87.87
2022-12-23T00:39:30.726Z,86.68
2022-12-23T00:42:16.552Z,85.33
2022-12-23T00:44:45.438Z,85.52
2022-12-23T00:47:35.011Z,86.62
2022-12-23T00:50:03.823Z,87.35
2022-12-23T00:52:31.968Z,88.06
2022-12-23T00:55:00.104Z,88.18
2022-12-23T00:57:28.211Z,87.15
2022-12-23T00:59:56.319Z,87.24
2022-12-23T01:02:42.342Z,86.91
2022-12-23T01:05:36.010Z,86.07
2022-12-23T01:08:04.665Z,86.88
2022-12-23T01:10:32.902Z,87.12
2022-12-23T01:13:01.079Z,87.18
2022-12-23T01:15:29.560Z,87.38
2022-12-23T01:17:57.847Z,87.81
2022-12-23T01:20:27.375Z,87.30
2022-12-23T01:22:55.496Z,87.65
2022-12-23T01:25:23.721Z,88.13
2022-12-23T01:27:51.832Z,86.29
2022-12-23T01:30:20.148Z,84.91
2022-12-23T01:32:48.294Z,85.29
2022-12-23T01:35:16.759Z,85.91
2022-12-23T01:37:46.214Z,86.80
2022-12-23T01:40:14.483Z,87.27
2022-12-23T01:42:44.299Z,87.49
2022-12-23T01:45:20.066Z,87.03
2022-12-23T01:47:55.199Z,86.64
2022-12-23T01:50:32.286Z,87.33
2022-12-23T01:53:08.784Z,87.67
2022-12-23T01:55:44.063Z,88.13
2022-12-23T01:58:16.333Z,87.87
2022-12-23T02:01:02.405Z,87.98
2022-12-23T02:03:45.952Z,86.88
2022-12-23T02:06:41.359Z,86.97
2022-12-23T02:09:20.402Z,87.09
2022-12-23T02:12:38.116Z,86.86
2022-12-23T02:15:49.948Z,86.41
2022-12-23T02:18:50.103Z,87.67
2022-12-23T02:21:39.775Z,88.34
2022-12-23T02:24:56.404Z,89.50
2022-12-23T02:27:31.138Z,90.27
2022-12-23T02:30:25.813Z,90.36
2022-12-23T02:33:38.641Z,91.14
2022-12-23T02:36:28.616Z,91.18
2022-12-23T02:39:06.648Z,91.58
2022-12-23T02:41:49.475Z,91.67
2022-12-23T02:44:30.582Z,92.05
2022-12-23T02:47:06.339Z,91.28
2022-12-23T02:49:39.774Z,91.44
2022-12-23T02:52:14.380Z,92.26
2022-12-23T02:54:51.274Z,92.59
2022-12-23T02:57:28.030Z,92.70
2022-12-23T02:59:58.763Z,92.99
2022-12-23T03:02:28.430Z,93.19
2022-12-23T03:04:56.691Z,93.78
2022-12-23T03:07:33.722Z,93.52
2022-12-23T03:10:14.650Z,93.81
2022-12-23T03:12:56.215Z,93.99
2022-12-23T03:15:42.544Z,93.99
2022-12-23T03:18:25.188Z,94.20
2022-12-23T03:21:03.952Z,94.57
2022-12-23T03:23:39.215Z,94.91
2022-12-23T03:26:15.566Z,95.22
2022-12-23T03:28:53.856Z,95.45
2022-12-23T03:31:29.435Z,95.35
2022-12-23T03:34:07.011Z,95.41
2022-12-23T03:36:41.311Z,95.09
2022-12-23T03:39:17.530Z,95.20
2022-12-23T03:41:53.565Z,95.10
2022-12-23T03:44:29.346Z,94.99
2022-12-23T03:47:06.360Z,94.54
2022-12-23T03:49:42.761Z,94.89
2022-12-23T03:52:21.142Z,95.17
2022-12-23T03:54:55.082Z,95.38
2022-12-23T03:57:30.006Z,95.74
2022-12-23T03:59:58.363Z,96.02
2022-12-23T04:02:37.013Z,96.06
2022-12-23T04:05:25.380Z,95.67
2022-12-23T04:07:59.886Z,94.10
2022-12-23T04:10:29.117Z,93.22
2022-12-23T04:12:57.378Z,93.42
2022-12-23T04:15:28.320Z,93.40
2022-12-23T04:17:58.941Z,93.53
2022-12-23T04:20:28.429Z,93.73
2022-12-23T04:22:56.537Z,93.63
2022-12-23T04:25:24.659Z,93.75
2022-12-23T04:27:52.775Z,93.70
2022-12-23T04:30:21.087Z,93.46
2022-12-23T04:32:49.158Z,93.32
2022-12-23T04:35:17.694Z,93.17
2022-12-23T04:37:47.160Z,93.15
2022-12-23T04:40:15.566Z,93.05
2022-12-23T04:42:43.715Z,92.55
2022-12-23T04:45:12.504Z,91.49
2022-12-23T04:47:41.389Z,90.74
2022-12-23T04:50:14.699Z,90.61
2022-12-23T04:52:43.295Z,90.85
2022-12-23T04:55:13.016Z,91.17
2022-12-23T04:57:41.103Z,91.55
2022-12-23T05:00:11.167Z,91.57
2022-12-23T05:02:39.413Z,91.03
2022-12-23T05:05:08.332Z,89.84
2022-12-23T05:07:36.528Z,89.58
2022-12-23T05:10:04.964Z,89.18
2022-12-23T05:12:34.456Z,88.47
2022-12-23T05:15:02.620Z,88.44
2022-12-23T05:17:30.704Z,89.24
2022-12-23T05:19:58.789Z,89.74
2022-12-23T05:22:26.908Z,90.06
2022-12-23T05:24:55.009Z,89.89
2022-12-23T05:27:23.160Z,88.31
2022-12-23T05:29:52.775Z,88.20
2022-12-23T05:32:20.905Z,88.35
2022-12-23T05:34:49.034Z,88.51
2022-12-23T05:37:17.205Z,87.98
2022-12-23T05:39:45.331Z,88.45
2022-12-23T05:42:13.692Z,88.50
2022-12-23T05:44:41.766Z,87.59
2022-12-23T05:47:11.244Z,86.17
2022-12-23T05:49:39.334Z,86.02
2022-12-23T05:52:07.465Z,84.62
2022-12-23T05:54:35.604Z,84.11
2022-12-23T05:57:03.843Z,85.01
2022-12-23T05:59:32.039Z,85.00
2022-12-23T06:02:00.441Z,85.06
2022-12-23T06:04:30.158Z,84.98
2022-12-23T06:06:58.408Z,85.70
2022-12-23T06:09:27.767Z,85.50
2022-12-23T06:11:55.887Z,85.11
2022-12-23T06:14:28.821Z,85.38
2022-12-23T06:16:57.644Z,85.33
2022-12-23T06:19:28.712Z,85.42
2022-12-23T06:21:56.811Z,85.56
2022-12-23T06:24:24.910Z,84.89
2022-12-23T06:26:57.009Z,85.37
2022-12-23T06:29:25.722Z,85.01
2022-12-23T06:31:54.000Z,85.57
2022-12-23T06:34:22.164Z,85.77
2022-12-23T06:36:51.680Z,85.18
2022-12-23T06:39:19.944Z,84.69
2022-12-23T06:41:48.076Z,84.57
2022-12-23T06:44:16.482Z,84.65
2022-12-23T06:46:44.616Z,84.88
2022-12-23T06:49:13.853Z,84.88
2022-12-23T06:51:42.549Z,85.15
2022-12-23T06:54:13.082Z,85.36
2022-12-23T06:56:41.381Z,85.29
2022-12-23T06:59:09.554Z,84.39
2022-12-23T07:01:38.084Z,84.19
2022-12-23T07:04:06.516Z,84.58
2022-12-23T07:06:34.741Z,84.99
2022-12-23T07:09:02.939Z,84.80
2022-12-23T07:11:32.465Z,83.91
2022-12-23T07:14:00.617Z,83.69
2022-12-23T07:16:28.896Z,83.00
2022-12-23T07:18:57.066Z,83.32
2022-12-23T07:21:29.517Z,83.62
2022-12-23T07:23:58.320Z,83.89
2022-12-23T07:26:26.516Z,84.26
2022-12-23T07:28:55.998Z,84.60
2022-12-23T07:31:24.248Z,84.44
2022-12-23T07:33:52.595Z,84.39
2022-12-23T07:36:20.742Z,83.92
2022-12-23T07:38:51.870Z,84.33
2022-12-23T07:41:20.505Z,84.49
2022-12-23T07:43:48.976Z,83.33
2022-12-23T07:46:18.584Z,83.93
2022-12-23T07:48:46.752Z,84.23
2022-12-23T07:51:14.965Z,83.41
2022-12-23T07:53:43.126Z,82.59
2022-12-23T07:56:11.254Z,83.13
2022-12-23T07:58:39.374Z,83.60
2022-12-23T08:01:08.951Z,82.83
2022-12-23T08:03:38.774Z,82.47
2022-12-23T08:06:12.526Z,83.36
2022-12-23T08:08:42.452Z,84.44
2022-12-23T08:11:12.889Z,83.46
2022-12-23T08:13:43.337Z,83.54
2022-12-23T08:16:13.212Z,83.32
2022-12-23T08:18:43.602Z,83.21
2022-12-23T08:21:15.788Z,83.76
2022-12-23T08:23:44.844Z,83.34
2022-12-23T08:26:15.543Z,82.78
2022-12-23T08:28:45.800Z,82.08
2022-12-23T08:31:17.461Z,82.74
2022-12-23T08:33:49.793Z,82.71
2022-12-23T08:36:23.326Z,81.54
2022-12-23T08:38:53.627Z,81.69
2022-12-23T08:41:25.490Z,81.22
2022-12-23T08:43:53.992Z,82.21
2022-12-23T08:46:22.698Z,82.53
2022-12-23T08:48:52.860Z,81.88
2022-12-23T08:51:24.454Z,81.29
2022-12-23T08:53:59.795Z,81.45
2022-12-23T08:56:31.654Z,81.43
2022-12-23T08:59:00.449Z,81.17
2022-12-23T09:01:32.601Z,81.33
2022-12-23T09:04:04.101Z,81.75
2022-12-23T09:06:36.833Z,81.06
2022-12-23T09:09:06.204Z,81.13
2022-12-23T09:11:35.896Z,80.98
2022-12-23T09:14:05.010Z,80.85
2022-12-23T09:16:33.466Z,80.55
2022-12-23T09:19:03.056Z,81.35
2022-12-23T09:21:31.563Z,80.68
2022-12-23T09:23:59.729Z,81.09
2022-12-23T09:26:30.836Z,80.42
2022-12-23T09:28:59.383Z,80.21
2022-12-23T09:31:32.569Z,80.33
2022-12-23T09:34:06.790Z,78.94
2022-12-23T09:36:35.159Z,78.20
2022-12-23T09:39:03.528Z,78.97
2022-12-23T09:42:03.825Z,79.51
2022-12-23T09:44:56.516Z,79.47
2022-12-23T09:47:29.273Z,79.44
2022-12-23T09:50:02.945Z,79.49
2022-12-23T09:52:44.122Z,79.27
2022-12-23T09:55:14.921Z,79.86
2022-12-23T09:57:52.029Z,79.85
2022-12-23T10:00:23.076Z,78.94
2022-12-23T10:03:17.073Z,78.59
2022-12-23T10:06:02.739Z,78.52
2022-12-23T10:08:37.341Z,79.05
2022-12-23T10:11:14.888Z,79.45
2022-12-23T10:13:48.024Z,77.92
2022-12-23T10:16:21.283Z,76.62
2022-12-23T10:18:58.101Z,77.76
2022-12-23T10:21:34.391Z,77.87
2022-12-23T10:24:13.102Z,78.27
2022-12-23T10:26:52.880Z,78.13
2022-12-23T10:29:23.857Z,78.20
2022-12-23T10:32:12.649Z,78.42
2022-12-23T10:34:52.439Z,77.58
2022-12-23T10:37:32.032Z,77.99
2022-12-23T10:40:20.844Z,77.83
2022-12-23T10:43:09.367Z,77.88
2022-12-23T10:45:53.574Z,77.00
2022-12-23T10:48:40.945Z,76.11
2022-12-23T10:51:20.802Z,76.01
2022-12-23T10:53:56.097Z,74.47
2022-12-23T10:56:24.545Z,74.64
2022-12-23T10:58:59.195Z,74.04
2022-12-23T11:01:30.162Z,74.84
2022-12-23T11:04:08.489Z,74.22
2022-12-23T11:06:44.781Z,73.11
2022-12-23T11:09:20.181Z,73.10
2022-12-23T11:12:01.226Z,73.71
2022-12-23T11:14:37.496Z,74.15
2022-12-23T11:17:18.685Z,74.60
2022-12-23T11:19:46.881Z,73.87
2022-12-23T11:22:26.782Z,74.45
2022-12-23T11:24:56.332Z,74.98
2022-12-23T11:27:24.620Z,74.95
2022-12-23T11:29:55.989Z,75.08
2022-12-23T11:32:29.061Z,75.35
2022-12-23T11:34:57.896Z,76.07
2022-12-23T11:37:38.090Z,77.02
2022-12-23T11:40:23.803Z,77.18
2022-12-23T11:42:58.162Z,75.53
2022-12-23T11:45:28.964Z,73.80
2022-12-23T11:47:57.627Z,72.67
2022-12-23T11:50:37.584Z,72.22
2022-12-23T11:53:15.211Z,71.85
2022-12-23T11:56:00.545Z,70.70
2022-12-23T11:58:32.060Z,71.18
2022-12-23T12:01:09.162Z,71.01
2022-12-23T12:03:49.294Z,71.78
2022-12-23T12:06:20.402Z,72.48
2022-12-23T12:08:52.598Z,73.42
2022-12-23T12:11:28.471Z,73.47
2022-12-23T12:14:01.878Z,73.45
2022-12-23T12:16:51.711Z,74.70
2022-12-23T12:19:29.187Z,75.59
2022-12-23T12:22:13.765Z,75.31
2022-12-23T12:24:49.502Z,75.89
2022-12-23T12:27:29.340Z,75.10
2022-12-23T12:30:08.443Z,75.89
2022-12-23T12:32:49.557Z,76.61
2022-12-23T12:35:23.877Z,76.73
2022-12-23T12:37:58.277Z,76.53
2022-12-23T12:40:37.254Z,75.72
2022-12-23T12:43:25.162Z,75.75
2022-12-23T12:46:05.606Z,75.18
2022-12-23T12:48:47.957Z,74.85
2022-12-23T12:51:25.686Z,75.71
2022-12-23T12:54:05.926Z,76.41
2022-12-23T12:56:42.398Z,76.89
2022-12-23T12:59:18.025Z,77.62
2022-12-23T13:02:11.506Z,77.90
2022-12-23T13:05:16.865Z,78.38
2022-12-23T13:08:09.313Z,78.71
2022-12-23T13:10:46.145Z,78.89
2022-12-23T13:13:36.163Z,78.87
2022-12-23T13:16:18.517Z,79.17
2022-12-23T13:18:59.288Z,78.25
2022-12-23T13:21:36.919Z,79.51
2022-12-23T13:24:20.931Z,80.46
2022-12-23T13:27:02.660Z,81.30
2022-12-23T13:30:07.765Z,81.84
2022-12-23T13:33:02.057Z,82.02
2022-12-23T13:35:50.780Z,81.84
2022-12-23T13:38:41.890Z,82.35
2022-12-23T13:41:24.421Z,83.23
2022-12-23T13:43:57.867Z,83.68
2022-12-23T13:46:41.686Z,84.33
2022-12-23T13:49:21.534Z,84.81
2022-12-23T13:51:58.602Z,84.88
2022-12-23T13:54:46.168Z,85.17
2022-12-23T13:57:32.696Z,85.36
2022-12-23T14:00:23.077Z,86.07
2022-12-23T14:02:53.575Z,85.88
2022-12-23T14:05:40.834Z,86.03
2022-12-23T14:08:34.095Z,86.89
2022-12-23T14:11:13.386Z,87.37
2022-12-23T14:13:45.772Z,87.56
2022-12-23T14:16:42.763Z,87.58
2022-12-23T14:19:38.381Z,88.04
2022-12-23T14:22:36.063Z,88.48
2022-12-23T14:25:40.400Z,88.41
2022-12-23T14:28:29.079Z,88.90
2022-12-23T14:30:58.029Z,89.20
2022-12-23T14:33:29.093Z,88.21
2022-12-23T14:36:14.540Z,88.15
2022-12-23T14:39:04.128Z,88.63
2022-12-23T14:41:40.258Z,89.00
2022-12-23T14:44:22.247Z,89.20
2022-12-23T14:46:57.488Z,89.73
2022-12-23T14:49:43.866Z,90.15
2022-12-23T14:52:50.847Z,90.56
2022-12-23T14:55:46.292Z,90.38
2022-12-23T14:59:19.642Z,90.49
2022-12-23T15:01:52.306Z,89.27
2022-12-23T15:04:26.518Z,89.23
2022-12-23T15:06:59.939Z,89.78
2022-12-23T15:09:31.905Z,89.79
2022-12-23T15:12:12.785Z,89.90
2022-12-23T15:14:50.169Z,90.17
2022-12-23T15:17:24.819Z,90.21
2022-12-23T15:19:53.771Z,90.21
2022-12-23T15:22:28.500Z,89.81
2022-12-23T15:25:00.173Z,89.81
2022-12-23T15:27:36.341Z,89.91
2022-12-23T15:30:05.091Z,90.01
2022-12-23T15:32:33.331Z,90.16
2022-12-23T15:35:07.150Z,90.38
2022-12-23T15:37:35.907Z,90.70
2022-12-23T15:40:12.234Z,90.50
2022-12-23T15:42:49.699Z,90.62
2022-12-23T15:45:38.551Z,90.53
2022-12-23T15:48:25.176Z,90.12
2022-12-23T15:50:59.049Z,89.94
2022-12-23T15:53:34.502Z,90.08
2022-12-23T15:56:08.778Z,90.24
2022-12-23T15:58:42.952Z,90.13
2022-12-23T16:01:17.990Z,90.27
2022-12-23T16:03:54.248Z,90.39
2022-12-23T16:06:26.463Z,90.41
2022-12-23T16:09:00.825Z,90.08
2022-12-23T16:11:50.687Z,90.03
2022-12-23T16:14:33.252Z,89.89
2022-12-23T16:17:13.215Z,89.72
2022-12-23T16:19:45.526Z,89.46
2022-12-23T16:22:23.386Z,89.27
2022-12-23T16:24:59.926Z,89.37
2022-12-23T16:27:37.724Z,89.33
2022-12-23T16:30:17.011Z,89.25
2022-12-23T16:32:51.231Z,89.07
2022-12-23T16:35:32.673Z,89.19
2022-12-23T16:38:15.740Z,89.54
2022-12-23T16:40:45.548Z,89.80
2022-12-23T16:43:14.395Z,89.90
2022-12-23T16:45:46.950Z,90.26
2022-12-23T16:48:21.469Z,90.48
2022-12-23T16:50:50.733Z,90.74
2022-12-23T16:53:18.866Z,91.00
2022-12-23T16:55:53.797Z,91.34
2022-12-23T16:58:26.595Z,91.59
2022-12-23T17:00:56.731Z,91.91
2022-12-23T17:03:24.922Z,92.38
2022-12-23T17:05:53.087Z,92.46
2022-12-23T17:08:21.213Z,92.73
2022-12-23T17:10:49.385Z,92.86
2022-12-23T17:13:19.795Z,93.27
2022-12-23T17:15:47.994Z,93.58
2022-12-23T17:18:19.238Z,93.55
2022-12-23T17:20:49.572Z,93.28
2022-12-23T17:23:28.141Z,93.19
2022-12-23T17:25:56.722Z,93.49
2022-12-23T17:28:33.601Z,93.71
2022-12-23T17:31:03.365Z,93.94
2022-12-23T17:33:34.633Z,94.26
2022-12-23T17:36:03.196Z,94.56
2022-12-23T17:38:31.670Z,94.81
2022-12-23T17:40:59.959Z,95.12
2022-12-23T17:43:28.320Z,95.26
2022-12-23T17:45:57.056Z,95.32
2022-12-23T17:48:31.103Z,95.40
2022-12-23T17:51:01.283Z,95.26
2022-12-23T17:53:29.410Z,95.24
2022-12-23T17:55:57.541Z,94.02
2022-12-23T17:58:25.683Z,93.35
2022-12-23T18:00:53.911Z,93.74
2022-12-23T18:03:24.735Z,93.06
2022-12-23T18:05:59.306Z,91.87
2022-12-23T18:08:31.449Z,91.72
2022-12-23T18:11:00.873Z,90.92
2022-12-23T18:13:29.113Z,90.45
2022-12-23T18:15:57.371Z,91.00
2022-12-23T18:18:34.265Z,91.65
2022-12-23T18:21:10.374Z,92.31
2022-12-23T18:23:40.249Z,92.74
2022-12-23T18:26:11.813Z,93.26
2022-12-23T18:28:40.049Z,93.57
2022-12-23T18:31:14.563Z,94.03
2022-12-23T18:33:42.737Z,94.19
2022-12-23T18:36:25.305Z,94.37
2022-12-23T18:38:56.975Z,94.49
2022-12-23T18:41:27.077Z,94.39
2022-12-23T18:43:55.803Z,93.70
2022-12-23T18:46:23.956Z,93.63
2022-12-23T18:48:52.456Z,94.15
2022-12-23T18:51:22.945Z,94.13
2022-12-23T18:53:51.339Z,94.47
2022-12-23T18:56:21.800Z,94.60
2022-12-23T18:58:50.007Z,94.90
2022-12-23T19:01:19.636Z,94.93
2022-12-23T19:03:48.110Z,94.97
2022-12-23T19:06:16.902Z,95.19
2022-12-23T19:08:45.668Z,94.83
2022-12-23T19:11:16.920Z,94.72
2022-12-23T19:13:47.318Z,94.76
2022-12-23T19:16:17.275Z,95.00
2022-12-23T19:18:46.750Z,94.58
2022-12-23T19:21:15.247Z,94.17
2022-12-23T19:23:44.175Z,94.61
2022-12-23T19:26:15.090Z,94.13
2022-12-23T19:28:43.568Z,94.01
2022-12-23T19:31:16.802Z,93.88
2022-12-23T19:33:47.720Z,93.75
2022-12-23T19:36:19.157Z,94.00
2022-12-23T19:38:47.792Z,94.16
2022-12-23T19:41:16.334Z,94.23
2022-12-23T19:43:47.161Z,93.17
2022-12-23T19:46:18.271Z,93.18
2022-12-23T19:48:52.763Z,93.76
2022-12-23T19:51:21.156Z,92.85
2022-12-23T19:53:52.951Z,93.05
2022-12-23T19:56:22.413Z,93.40
2022-12-23T19:58:51.492Z,93.75
2022-12-23T20:01:23.902Z,93.84
2022-12-23T20:03:56.282Z,93.99
2022-12-23T20:06:28.005Z,94.26
2022-12-23T20:09:00.829Z,93.10
2022-12-23T20:11:30.654Z,93.36
2022-12-23T20:14:00.458Z,94.05
2022-12-23T20:16:31.080Z,94.58
2022-12-23T20:19:00.144Z,94.82
2022-12-23T20:21:28.541Z,95.34
2022-12-23T20:23:56.952Z,95.16
2022-12-23T20:26:26.778Z,94.29
2022-12-23T20:28:54.996Z,94.63
2022-12-23T20:31:25.074Z,94.14
2022-12-23T20:33:56.057Z,94.32
2022-12-23T20:36:26.818Z,94.46
2022-12-23T20:38:55.999Z,94.45
2022-12-23T20:41:26.947Z,94.72
2022-12-23T20:46:43.658Z,94.89
2022-12-23T20:49:13.145Z,95.15
2022-12-23T20:51:41.307Z,95.40
2022-12-23T20:54:09.735Z,95.78
2022-12-23T20:56:37.875Z,96.00
2022-12-23T20:59:06.026Z,96.17
2022-12-23T21:01:37.759Z,96.49
2022-12-23T21:04:09.335Z,96.95
2022-12-23T21:06:39.711Z,96.92
2022-12-23T21:09:11.608Z,96.34
2022-12-23T21:11:43.858Z,96.09
2022-12-23T21:14:13.000Z,96.09
2022-12-23T21:16:42.462Z,95.95
2022-12-23T21:19:17.068Z,96.21
2022-12-23T21:21:47.834Z,96.67
2022-12-23T21:24:16.800Z,96.87
2022-12-23T21:26:49.033Z,96.85
2022-12-23T21:29:22.109Z,96.28
2022-12-23T21:31:50.333Z,96.35
2022-12-23T21:34:18.523Z,96.35
2022-12-23T21:36:48.195Z,96.69
2022-12-23T21:39:17.731Z,96.95
2022-12-23T21:41:46.030Z,97.22
2022-12-23T21:44:15.386Z,97.37
2022-12-23T21:46:43.705Z,97.71
2022-12-23T21:49:12.411Z,97.89
2022-12-23T21:51:41.664Z,98.03
2022-12-23T21:54:13.433Z,98.08
2022-12-23T21:56:42.762Z,98.01
2022-12-23T21:59:15.558Z,98.10
2022-12-23T22:01:44.847Z,98.17
2022-12-23T22:04:13.843Z,97.98
2022-12-23T22:06:44.564Z,97.44
2022-12-23T22:09:18.304Z,97.26
2022-12-23T22:11:47.808Z,97.28
2022-12-23T22:14:19.088Z,97.80
2022-12-23T22:16:47.566Z,97.76
2022-12-23T22:19:16.006Z,97.98
2022-12-23T22:21:44.288Z,98.05
2022-12-23T22:24:13.804Z,98.22
2022-12-23T22:26:42.268Z,98.46
2022-12-23T22:29:12.633Z,98.51
2022-12-23T22:31:44.677Z,98.71
2022-12-23T22:34:17.216Z,98.98
2022-12-23T22:36:45.761Z,99.14
2022-12-23T22:39:21.165Z,99.37
2022-12-23T22:41:50.619Z,99.84
2022-12-23T22:44:19.288Z,100.00
2022-12-23T22:46:47.751Z,100.00
2022-12-23T22:49:18.791Z,100.00
2022-12-23T22:51:47.375Z,100.00
2022-12-23T22:54:16.966Z,100.00
2022-12-23T22:56:45.817Z,100.00
2022-12-23T22:59:21.713Z,100.00
2022-12-23T23:01:51.980Z,100.00
2022-12-23T23:04:20.682Z,99.77
2022-12-23T23:06:49.148Z,99.93
2022-12-23T23:09:22.308Z,99.68
2022-12-23T23:11:51.178Z,99.24
2022-12-23T23:14:21.002Z,98.54
2022-12-23T23:16:49.296Z,97.84
2022-12-23T23:19:20.259Z,96.58
2022-12-23T23:21:49.073Z,96.64
2022-12-23T23:24:18.586Z,96.06
2022-12-23T23:26:46.812Z,96.08
2022-12-23T23:29:14.960Z,95.22
2022-12-23T23:31:44.256Z,94.40
2022-12-23T23:34:13.474Z,94.17
2022-12-23T23:36:42.027Z,93.26
2022-12-23T23:39:13.049Z,92.85
2022-12-23T23:41:43.346Z,92.43
2022-12-23T23:44:12.852Z,92.52
2022-12-23T23:46:41.013Z,91.89
2022-12-23T23:49:09.440Z,91.70
2022-12-23T23:51:37.694Z,92.36
2022-12-23T23:54:05.960Z,92.64
2022-12-23T23:56:38.646Z,92.83
2022-12-23T23:59:09.319Z,93.33
